Time;durP1;ratioP1;P1;durP2;ratioP2;P2;SDS_P1;SDS_P2;PMS_P1;PMS_P2;Temp;Humidity;BMP_temperature;BMP_pressure;BME280_temperature;BME280_humidity;BME280_pressure;Samples;Min_cycle;Max_cycle;Signal;HPM_P1;HPM_P2
2021/10/29 00:01:08;;;;;;;23.93;21.63;;;9.80;99.90;;;;;;10320562;28;20655;-83
2021/10/29 00:06:11;;;;;;;23.90;21.60;;;9.80;99.90;;;;;;10322933;28;20231;-84
2021/10/29 00:11:14;;;;;;;23.40;21.17;;;9.80;99.90;;;;;;10340796;28;20203;-83
2021/10/29 00:16:16;;;;;;;22.50;20.20;;;9.70;99.90;;;;;;10339091;28;20253;-83
2021/10/29 00:21:19;;;;;;;24.47;22.10;;;9.70;99.90;;;;;;10322825;28;20613;-83
2021/10/29 00:26:22;;;;;;;24.47;21.97;;;9.70;99.90;;;;;;10332984;28;20642;-84
2021/10/29 00:31:24;;;;;;;22.37;20.27;;;9.70;99.90;;;;;;10319103;28;20257;-83
2021/10/29 00:36:26;;;;;;;23.80;21.37;;;9.80;99.90;;;;;;10324460;28;20238;-83
2021/10/29 00:41:30;;;;;;;22.67;20.37;;;9.80;99.90;;;;;;10324147;28;20672;-83
2021/10/29 00:46:32;;;;;;;23.50;21.00;;;9.70;99.90;;;;;;10333214;28;20337;-83
2021/10/29 00:51:35;;;;;;;23.83;21.57;;;9.60;99.90;;;;;;10341663;28;20206;-83
2021/10/29 00:56:38;;;;;;;23.40;21.20;;;9.50;99.90;;;;;;10332803;28;20576;-83
2021/10/29 01:01:41;;;;;;;24.03;21.63;;;9.50;99.90;;;;;;10279628;28;20212;-83
2021/10/29 01:06:44;;;;;;;25.00;22.60;;;9.50;99.90;;;;;;10304392;28;20717;-83
2021/10/29 01:11:48;;;;;;;24.77;22.27;;;9.60;99.90;;;;;;10334260;28;20234;-83
2021/10/29 01:16:50;;;;;;;24.40;21.80;;;9.60;99.90;;;;;;10316837;28;20321;-83
2021/10/29 01:21:54;;;;;;;24.00;21.53;;;9.60;99.90;;;;;;10311068;28;20239;-83
2021/10/29 01:26:57;;;;;;;26.10;23.40;;;9.60;99.90;;;;;;10306521;28;20234;-84
2021/10/29 01:31:59;;;;;;;25.60;23.00;;;9.60;99.90;;;;;;10302302;28;20637;-83
2021/10/29 01:37:02;;;;;;;25.40;22.80;;;9.50;99.90;;;;;;10314337;28;20234;-83
2021/10/29 01:42:05;;;;;;;27.20;24.33;;;9.50;99.90;;;;;;10315109;28;20660;-84
2021/10/29 01:47:08;;;;;;;26.87;24.10;;;9.50;99.90;;;;;;10333709;28;20222;-83
2021/10/29 01:52:12;;;;;;;26.57;23.90;;;9.60;99.90;;;;;;10322181;28;20208;-84
2021/10/29 01:57:14;;;;;;;24.63;22.00;;;9.50;99.90;;;;;;10304111;28;20280;-84
2021/10/29 02:02:16;;;;;;;26.63;24.03;;;9.50;99.90;;;;;;10315304;28;20211;-83
2021/10/29 02:07:20;;;;;;;26.43;23.77;;;9.40;99.90;;;;;;10305869;28;20223;-83
2021/10/29 02:12:22;;;;;;;26.40;23.80;;;9.40;99.90;;;;;;10316194;28;20298;-83
2021/10/29 02:17:25;;;;;;;24.93;22.50;;;9.30;99.90;;;;;;10299319;28;20242;-83
2021/10/29 02:22:30;;;;;;;25.27;22.87;;;9.30;99.90;;;;;;10310313;28;20225;-83
2021/10/29 02:27:32;;;;;;;26.80;24.20;;;9.20;99.90;;;;;;10330492;28;20643;-83
2021/10/29 02:32:34;;;;;;;27.83;25.13;;;9.20;99.90;;;;;;10300799;28;20208;-82
2021/10/29 02:37:37;;;;;;;26.73;24.03;;;9.20;99.90;;;;;;10331540;28;20710;-83
2021/10/29 02:42:40;;;;;;;26.13;23.60;;;9.30;99.90;;;;;;10309393;28;20298;-83
2021/10/29 02:47:46;;;;;;;27.20;23.83;;;9.30;99.90;;;;;;10326436;28;20258;-83
2021/10/29 02:52:50;;;;;;;27.87;25.20;;;9.30;99.90;;;;;;10307554;28;20297;-83
2021/10/29 02:57:52;;;;;;;26.47;23.87;;;9.40;99.90;;;;;;10330142;28;20715;-84
2021/10/29 03:02:55;;;;;;;25.43;22.83;;;9.40;99.90;;;;;;10294002;28;20208;-84
2021/10/29 03:07:58;;;;;;;23.83;21.57;;;9.40;99.90;;;;;;10323503;28;20230;-83
2021/10/29 03:13:00;;;;;;;23.43;21.23;;;9.30;99.90;;;;;;10310472;28;20199;-83
2021/10/29 03:18:02;;;;;;;26.50;23.90;;;9.30;99.90;;;;;;10300521;28;20217;-84
2021/10/29 03:23:06;;;;;;;27.20;23.80;;;9.20;99.90;;;;;;10313059;28;20203;-83
2021/10/29 03:28:08;;;;;;;25.93;23.33;;;9.20;99.90;;;;;;10275435;28;20664;-84
2021/10/29 03:33:10;;;;;;;25.70;23.10;;;9.10;99.90;;;;;;10305347;28;20791;-84
2021/10/29 03:43:45;;;;;;;24.70;22.13;;;9.10;99.90;;;;;;10279605;28;20227;-84
2021/10/29 03:48:56;;;;;;;23.70;21.40;;;9.10;99.90;;;;;;10307239;28;20691;-84
2021/10/29 03:54:04;;;;;;;25.00;22.40;;;9.10;99.90;;;;;;10313896;28;20232;-84
2021/10/29 03:59:06;;;;;;;22.83;20.63;;;9.10;99.90;;;;;;10325885;28;20206;-84
2021/10/29 04:04:08;;;;;;;24.83;22.33;;;9.10;99.90;;;;;;10328077;28;20227;-84
2021/10/29 04:09:11;;;;;;;25.47;23.03;;;9.10;99.90;;;;;;10319551;28;20215;-84
2021/10/29 04:14:14;;;;;;;24.37;22.07;;;9.00;99.90;;;;;;10335026;28;20229;-83
2021/10/29 04:19:16;;;;;;;23.60;21.40;;;9.00;99.90;;;;;;10318305;28;20218;-83
2021/10/29 04:24:20;;;;;;;22.40;20.30;;;8.90;99.90;;;;;;10309499;28;20285;-83
2021/10/29 04:29:25;;;;;;;22.90;20.67;;;8.90;99.90;;;;;;10312788;28;20219;-83
2021/10/29 04:34:28;;;;;;;23.50;21.30;;;8.90;99.90;;;;;;10308751;28;20318;-83
2021/10/29 04:39:31;;;;;;;24.63;22.20;;;8.80;99.90;;;;;;10321283;28;20258;-83
2021/10/29 04:44:34;;;;;;;25.17;22.53;;;8.80;99.90;;;;;;10313339;28;20216;-82
2021/10/29 04:49:36;;;;;;;22.53;20.40;;;8.80;99.90;;;;;;10279032;28;20204;-83
2021/10/29 04:54:42;;;;;;;25.63;23.03;;;8.80;99.90;;;;;;10287663;28;20246;-85
2021/10/29 04:59:45;;;;;;;24.50;22.10;;;8.70;99.90;;;;;;10289049;28;20557;-85
2021/10/29 05:04:47;;;;;;;24.87;22.47;;;8.70;99.90;;;;;;10295306;28;20318;-85
2021/10/29 05:09:51;;;;;;;25.30;22.57;;;8.70;99.90;;;;;;10297698;28;20203;-85
2021/10/29 05:14:53;;;;;;;24.30;21.90;;;8.70;99.90;;;;;;10291844;28;20231;-85
2021/10/29 05:19:55;;;;;;;25.00;22.43;;;8.70;99.90;;;;;;10296978;28;20207;-85
2021/10/29 05:24:59;;;;;;;24.40;22.00;;;8.70;99.90;;;;;;10302809;28;20258;-85
2021/10/29 05:30:01;;;;;;;25.03;22.53;;;8.70;99.90;;;;;;10306035;28;20314;-85
2021/10/29 05:35:04;;;;;;;24.60;22.20;;;8.80;99.90;;;;;;10332217;28;20227;-85
2021/10/29 05:40:09;;;;;;;25.20;22.70;;;8.70;99.90;;;;;;10309113;28;20261;-85
2021/10/29 05:45:12;;;;;;;25.20;22.80;;;8.70;99.90;;;;;;10288987;28;20573;-85
2021/10/29 05:50:15;;;;;;;26.60;22.87;;;8.80;99.90;;;;;;10292548;28;20208;-85
2021/10/29 05:55:19;;;;;;;25.03;22.63;;;8.80;99.90;;;;;;10288288;28;20700;-85
2021/10/29 06:00:29;;;;;;;20.00;17.97;;;8.80;99.90;;;;;;10281748;28;20344;-86
2021/10/29 06:05:32;;;;;;;21.40;19.10;;;8.80;99.90;;;;;;10302497;28;20246;-86
2021/10/29 06:10:36;;;;;;;22.50;20.10;;;8.90;99.90;;;;;;10317531;28;20213;-85
2021/10/29 06:15:41;;;;;;;24.23;20.87;;;8.90;99.90;;;;;;10314149;28;20230;-85
2021/10/29 06:20:44;;;;;;;24.87;22.27;;;8.90;99.90;;;;;;10301065;28;20203;-85
2021/10/29 06:25:48;;;;;;;24.63;22.17;;;8.90;99.90;;;;;;10287584;28;20251;-85
2021/10/29 06:30:50;;;;;;;23.83;21.40;;;8.90;99.90;;;;;;10330380;28;20226;-85
2021/10/29 06:35:54;;;;;;;21.33;19.27;;;8.90;99.90;;;;;;10302456;28;20724;-85
2021/10/29 06:40:58;;;;;;;21.73;19.63;;;8.90;99.90;;;;;;10296844;28;20758;-85
2021/10/29 06:46:10;;;;;;;21.80;19.50;;;9.00;99.90;;;;;;10329553;28;20219;-85
2021/10/29 07:02:00;;;;;;;23.80;19.60;;;9.20;99.90;;;;;;10306050;28;20202;-85
2021/10/29 07:44:30;;;;;;;17.93;16.30;;;10.00;99.90;;;;;;10312780;28;20222;-85
2021/10/29 07:49:32;;;;;;;17.97;16.17;;;10.00;99.90;;;;;;10322366;28;20211;-84
2021/10/29 07:54:35;;;;;;;18.63;16.87;;;10.10;99.90;;;;;;10305896;28;20571;-85
2021/10/29 07:59:38;;;;;;;19.07;17.07;;;10.20;99.90;;;;;;10279871;28;20615;-85
2021/10/29 08:04:41;;;;;;;18.27;16.57;;;10.30;99.90;;;;;;10305671;28;20224;-85
2021/10/29 08:09:44;;;;;;;17.80;16.10;;;10.50;99.90;;;;;;10311741;28;20214;-85
2021/10/29 08:14:48;;;;;;;18.20;15.63;;;10.70;99.90;;;;;;10321318;28;20215;-85
2021/10/29 08:19:51;;;;;;;18.20;16.60;;;10.80;99.90;;;;;;10337986;28;20563;-85
2021/10/29 08:24:53;;;;;;;15.40;14.00;;;11.00;99.90;;;;;;10332714;28;20243;-85
2021/10/29 08:30:02;;;;;;;16.70;15.30;;;11.00;99.90;;;;;;10328720;28;20644;-85
2021/10/29 08:35:07;;;;;;;16.67;15.07;;;11.20;99.90;;;;;;10328798;28;20234;-85
2021/10/29 08:40:16;;;;;;;15.43;14.00;;;11.30;99.90;;;;;;10345604;28;20215;-85
2021/10/29 08:45:20;;;;;;;18.50;16.63;;;11.40;99.90;;;;;;10329270;28;20596;-85
2021/10/29 08:50:22;;;;;;;17.80;16.20;;;11.50;99.90;;;;;;10321688;28;20196;-85
2021/10/29 09:00:44;;;;;;;17.50;15.70;;;11.70;99.90;;;;;;10325925;28;20467;-86
2021/10/29 09:06:01;;;;;;;17.63;15.83;;;11.80;99.90;;;;;;10331639;28;20215;-86
2021/10/29 09:11:26;;;;;;;18.30;16.50;;;11.90;99.90;;;;;;10327060;28;20704;-86
2021/10/29 09:32:56;;;;;;;17.60;15.33;;;12.10;99.90;;;;;;10417034;28;20213;-85
2021/10/29 09:55:47;;;;;;;21.47;19.13;;;12.20;99.90;;;;;;10428353;28;20560;-83
2021/10/29 10:01:23;;;;;;;16.77;14.97;;;12.20;99.90;;;;;;10418421;28;20270;-83
2021/10/29 10:06:31;;;;;;;17.57;16.00;;;12.40;99.90;;;;;;10405496;28;20233;-85
2021/10/29 10:11:34;;;;;;;18.10;16.50;;;12.40;99.90;;;;;;10428361;28;20255;-83
2021/10/29 10:16:38;;;;;;;18.60;16.80;;;12.50;99.90;;;;;;10412275;28;20225;-83
2021/10/29 10:21:44;;;;;;;17.53;16.03;;;12.50;99.90;;;;;;10446342;28;20225;-83
2021/10/29 10:27:14;;;;;;;20.20;18.30;;;12.50;99.90;;;;;;10428315;28;20303;-83
2021/10/29 10:43:19;;;;;;;18.20;16.70;;;12.60;99.90;;;;;;10386132;28;20201;-83
2021/10/29 10:48:25;;;;;;;20.20;18.40;;;12.70;99.90;;;;;;10410067;28;20209;-83
2021/10/29 10:58:44;;;;;;;18.70;16.90;;;12.70;99.90;;;;;;10357691;28;20226;-83
2021/10/29 11:04:18;;;;;;;18.43;16.67;;;12.70;99.90;;;;;;10345193;28;20261;-83
2021/10/29 11:09:56;;;;;;;19.97;18.10;;;12.70;99.90;;;;;;10350707;28;20598;-84
2021/10/29 11:15:07;;;;;;;19.93;17.90;;;12.80;99.90;;;;;;10350201;28;20314;-84
2021/10/29 11:20:11;;;;;;;18.90;17.30;;;12.80;99.90;;;;;;10368781;28;20226;-84
2021/10/29 11:25:15;;;;;;;19.67;17.73;;;12.80;99.90;;;;;;10365289;28;20784;-83
2021/10/29 11:30:19;;;;;;;19.67;17.67;;;12.80;99.90;;;;;;10366067;28;20218;-83
2021/10/29 11:35:22;;;;;;;20.60;17.90;;;12.80;99.90;;;;;;10358101;28;20222;-84
2021/10/29 11:40:25;;;;;;;19.20;17.30;;;12.90;99.90;;;;;;10367986;28;20210;-83
2021/10/29 11:45:35;;;;;;;19.73;17.93;;;13.00;99.90;;;;;;10385035;28;20217;-84
2021/10/29 11:50:37;;;;;;;18.20;16.60;;;13.10;99.90;;;;;;10376372;28;20210;-83
2021/10/29 11:55:43;;;;;;;16.60;15.20;;;13.30;99.90;;;;;;10365593;28;20230;-83
2021/10/29 12:00:56;;;;;;;16.17;14.70;;;13.40;99.90;;;;;;10381226;28;20213;-84
2021/10/29 12:06:15;;;;;;;17.00;15.33;;;13.50;99.90;;;;;;10384126;28;20222;-84
2021/10/29 12:11:20;;;;;;;16.70;15.20;;;13.50;99.90;;;;;;10369009;28;20202;-84
2021/10/29 12:16:27;;;;;;;16.03;14.50;;;13.60;99.90;;;;;;10365096;28;20221;-83
2021/10/29 12:21:34;;;;;;;14.50;13.20;;;13.60;99.90;;;;;;10385252;28;20271;-83
2021/10/29 12:26:39;;;;;;;13.50;12.10;;;13.70;99.90;;;;;;10414674;28;20213;-83
2021/10/29 12:32:26;;;;;;;10.47;9.47;;;13.80;99.90;;;;;;10362051;28;20205;-84
2021/10/29 12:38:02;;;;;;;8.87;8.20;;;13.90;99.90;;;;;;10395051;28;20229;-84
2021/10/29 12:54:06;;;;;;;8.93;8.13;;;14.10;99.90;;;;;;10414599;28;20225;-84
2021/10/29 12:59:29;;;;;;;7.20;6.53;;;14.20;99.90;;;;;;10387494;28;20221;-84
2021/10/29 13:04:43;;;;;;;6.70;6.17;;;14.30;99.90;;;;;;10352962;28;20700;-84
2021/10/29 13:09:45;;;;;;;7.27;6.67;;;14.30;99.90;;;;;;10366763;28;20199;-84
2021/10/29 13:14:52;;;;;;;7.90;7.30;;;14.40;99.90;;;;;;10364290;28;20222;-84
2021/10/29 13:20:15;;;;;;;7.63;6.93;;;14.40;99.90;;;;;;10386944;28;20242;-84
2021/10/29 13:36:33;;;;;;;6.83;6.33;;;14.10;99.90;;;;;;10353392;28;20253;-84
2021/10/29 13:58:05;;;;;;;8.90;8.10;;;14.10;99.90;;;;;;10354827;28;20759;-84
2021/10/29 14:03:25;;;;;;;7.07;6.43;;;14.10;99.90;;;;;;10367653;28;20286;-85
2021/10/29 14:24:34;;;;;;;7.20;6.70;;;14.40;99.90;;;;;;10371364;28;20226;-85
2021/10/29 14:29:42;;;;;;;6.73;6.20;;;14.40;99.90;;;;;;10367584;28;20252;-85
2021/10/29 14:34:48;;;;;;;6.40;5.90;;;14.50;99.90;;;;;;10352240;28;20226;-85
2021/10/29 14:39:58;;;;;;;5.50;5.00;;;14.50;99.90;;;;;;10370781;28;20223;-85
2021/10/29 14:45:04;;;;;;;8.23;5.73;;;14.40;99.90;;;;;;10369801;28;20233;-84
2021/10/29 14:50:29;;;;;;;5.63;5.10;;;14.40;99.90;;;;;;10354299;28;20226;-84
2021/10/29 15:01:44;;;;;;;5.17;4.83;;;14.20;99.90;;;;;;10376919;28;20277;-84
2021/10/29 15:28:21;;;;;;;4.80;4.40;;;13.80;99.90;;;;;;10360401;28;20218;-84
2021/10/29 15:33:36;;;;;;;6.80;6.27;;;13.70;99.90;;;;;;10384619;28;20202;-84
2021/10/29 15:44:14;;;;;;;8.83;6.90;;;13.60;99.90;;;;;;10371980;28;20321;-84
2021/10/29 15:54:41;;;;;;;7.70;7.00;;;13.50;99.90;;;;;;10387001;28;20222;-84
2021/10/29 15:59:49;;;;;;;7.27;6.67;;;13.40;99.90;;;;;;10354042;28;20218;-83
2021/10/29 16:20:51;;;;;;;8.93;7.97;;;13.00;99.90;;;;;;10371142;28;20610;-84
2021/10/29 16:25:56;;;;;;;11.00;9.97;;;12.90;99.90;;;;;;10373291;28;20226;-84
2021/10/29 16:31:01;;;;;;;10.20;9.30;;;12.80;99.90;;;;;;10358283;28;20222;-84
2021/10/29 16:36:04;;;;;;;11.07;9.90;;;12.70;99.90;;;;;;10375992;28;20288;-84
2021/10/29 16:41:06;;;;;;;11.23;10.20;;;12.60;99.90;;;;;;10372904;28;20226;-83
2021/10/29 16:46:10;;;;;;;10.67;9.77;;;12.60;99.90;;;;;;10363438;28;20256;-84
2021/10/29 16:51:14;;;;;;;11.37;10.17;;;12.60;99.90;;;;;;10398302;28;20204;-84
2021/10/29 17:01:34;;;;;;;10.17;9.20;;;12.50;99.90;;;;;;10428636;28;20646;-84
2021/10/29 17:06:37;;;;;;;10.90;9.80;;;12.50;99.90;;;;;;10422951;28;20248;-84
2021/10/29 17:11:42;;;;;;;11.37;10.27;;;12.40;99.90;;;;;;10439473;28;20221;-84
2021/10/29 17:16:46;;;;;;;11.03;10.03;;;12.40;99.90;;;;;;10438746;28;20251;-84
2021/10/29 17:21:48;;;;;;;10.00;9.10;;;12.30;99.90;;;;;;10418773;28;20218;-84
2021/10/29 17:32:11;;;;;;;9.63;8.73;;;12.30;99.90;;;;;;10401423;28;20561;-84
2021/10/29 17:37:15;;;;;;;9.97;9.07;;;12.20;99.90;;;;;;10445625;28;20222;-84
2021/10/29 17:42:17;;;;;;;8.10;7.40;;;12.20;99.90;;;;;;10398738;28;20312;-84
2021/10/29 17:47:21;;;;;;;8.73;7.87;;;12.20;99.90;;;;;;10430105;28;20759;-84
2021/10/29 17:52:47;;;;;;;8.83;7.93;;;12.20;99.90;;;;;;10421869;28;20200;-84
2021/10/29 18:05:00;;;;;;;10.13;9.20;;;12.10;99.90;;;;;;10150737;29;20222;-82
2021/10/29 18:10:15;;;;;;;12.27;11.07;;;12.00;99.90;;;;;;10165393;28;20244;-82
2021/10/29 18:22:46;;;;;;;11.67;10.57;;;11.90;99.90;;;;;;10490112;28;20228;-84
2021/10/29 18:28:12;;;;;;;11.13;10.23;;;11.80;99.90;;;;;;10446188;28;20227;-84
2021/10/29 18:33:41;;;;;;;11.23;10.13;;;11.80;99.90;;;;;;10487897;28;20205;-84
2021/10/29 18:38:46;;;;;;;11.87;10.77;;;11.70;99.90;;;;;;10467252;28;20217;-84
2021/10/29 18:43:48;;;;;;;13.57;12.23;;;11.70;99.90;;;;;;10461425;28;20639;-84
2021/10/29 18:48:51;;;;;;;14.50;13.10;;;11.70;99.90;;;;;;10475664;28;20244;-83
2021/10/29 18:53:56;;;;;;;17.63;15.77;;;11.70;99.90;;;;;;10467033;28;20230;-84
2021/10/29 18:58:58;;;;;;;16.87;14.47;;;11.70;99.90;;;;;;10464565;28;20216;-84
2021/10/29 19:04:00;;;;;;;19.03;17.10;;;11.80;99.90;;;;;;10470181;28;20257;-84
2021/10/29 19:09:04;;;;;;;15.07;13.77;;;11.80;99.90;;;;;;10465501;28;20239;-84
2021/10/29 19:14:08;;;;;;;17.27;15.47;;;11.80;99.90;;;;;;10459757;28;20196;-84
2021/10/29 19:19:11;;;;;;;15.70;14.20;;;11.80;99.90;;;;;;10469238;28;20224;-84
2021/10/29 19:24:15;;;;;;;15.60;13.40;;;11.80;99.90;;;;;;10467094;28;20232;-84
2021/10/29 19:29:18;;;;;;;15.43;13.93;;;11.80;99.90;;;;;;10467552;28;20212;-85
2021/10/29 19:34:25;;;;;;;16.50;15.10;;;11.90;99.90;;;;;;10470417;28;20247;-84
2021/10/29 19:39:38;;;;;;;15.60;13.97;;;11.90;99.90;;;;;;10454820;28;20224;-84
2021/10/29 19:44:41;;;;;;;17.13;15.43;;;11.90;99.90;;;;;;10461464;28;20220;-82
2021/10/29 19:49:44;;;;;;;16.77;15.23;;;11.90;99.90;;;;;;10464772;28;20201;-82
2021/10/29 19:54:50;;;;;;;16.63;15.13;;;11.90;99.90;;;;;;10462268;28;20487;-82
2021/10/29 19:59:53;;;;;;;17.00;15.30;;;11.80;99.90;;;;;;10464633;28;20212;-82
2021/10/29 20:04:55;;;;;;;16.87;15.23;;;11.80;99.90;;;;;;10457329;28;20225;-82
2021/10/29 20:09:59;;;;;;;18.87;16.97;;;11.70;99.90;;;;;;10475628;28;20204;-84
2021/10/29 20:15:03;;;;;;;20.33;18.33;;;11.60;99.90;;;;;;10466275;28;20235;-84
2021/10/29 20:20:08;;;;;;;18.27;16.40;;;11.60;99.90;;;;;;10463605;28;20216;-84
2021/10/29 20:25:12;;;;;;;17.53;15.87;;;11.50;99.90;;;;;;10488169;28;20247;-84
2021/10/29 20:30:14;;;;;;;17.57;15.73;;;11.50;99.90;;;;;;10453203;28;20224;-84
2021/10/29 20:35:19;;;;;;;17.73;16.03;;;11.40;99.90;;;;;;10450775;28;20259;-84
2021/10/29 20:40:27;;;;;;;18.83;16.93;;;11.30;99.90;;;;;;10438898;28;20232;-84
2021/10/29 20:45:31;;;;;;;17.40;15.83;;;11.20;99.90;;;;;;10445961;28;20229;-83
2021/10/29 20:50:34;;;;;;;17.57;15.87;;;11.10;99.90;;;;;;10457439;28;20232;-84
2021/10/29 21:38:28;;;;;;;15.90;14.33;;;10.70;99.90;;;;;;10753297;23;20261;-84
2021/10/29 21:44:03;;;;;;;17.23;15.63;;;10.60;99.90;;;;;;10464979;28;20240;-84
2021/10/29 22:01:00;;;;;;;16.07;14.57;;;10.50;99.90;;;;;;10358948;28;20310;-83
2021/10/29 22:06:32;;;;;;;15.43;13.83;;;10.50;99.90;;;;;;10409523;28;20247;-84
2021/10/29 22:12:04;;;;;;;15.70;14.30;;;10.40;99.90;;;;;;10413249;28;20236;-85
2021/10/29 22:17:47;;;;;;;14.80;13.33;;;10.40;99.90;;;;;;10429972;28;20248;-84
2021/10/29 22:23:37;;;;;;;15.03;13.77;;;10.40;99.90;;;;;;10408474;28;20776;-85
2021/10/29 22:28:45;;;;;;;15.90;14.50;;;10.40;99.90;;;;;;10414000;28;20700;-84
2021/10/29 22:33:54;;;;;;;13.70;12.47;;;10.40;99.90;;;;;;10406885;28;20201;-85
2021/10/29 23:15:48;;;;;;;13.80;12.60;;;10.00;99.90;;;;;;10501686;28;20552;-81
2021/10/29 23:20:50;;;;;;;17.90;16.10;;;10.00;99.90;;;;;;10461022;28;20664;-83
2021/10/29 23:25:52;;;;;;;22.30;20.10;;;10.10;99.90;;;;;;10439671;28;20284;-84
2021/10/29 23:30:56;;;;;;;16.83;15.13;;;10.10;99.90;;;;;;10427056;28;20246;-83
2021/10/29 23:35:58;;;;;;;16.70;15.10;;;10.10;99.90;;;;;;10421176;28;20588;-83
2021/10/29 23:41:00;;;;;;;18.77;17.07;;;10.00;99.90;;;;;;10419189;28;20233;-83
2021/10/29 23:46:04;;;;;;;20.73;18.73;;;10.00;99.90;;;;;;10436478;28;20240;-83
2021/10/29 23:51:06;;;;;;;21.43;19.33;;;10.00;99.90;;;;;;10436084;28;20704;-82
2021/10/29 23:56:08;;;;;;;19.40;17.50;;;9.90;99.90;;;;;;10441874;28;20209;-83
